Country
Station

 

Weather  for  Rankin Inlet, N. W. T.  -  Canada    Canada

  
13 °C (55 °F)
    
 
 

Current METAR for Rankin Inlet, N. W. T. is :

CYRT 021100Z 31007KT 30SM FEW040 SCT270 13/09 A3028 RMK SC1CI3 SC TR SLP258

 

This is a report for Rankin Inlet, N. W. T. - Canada.
 
The report was made 24 minutes ago, at 11:00 UTC .
The wind was blowing at a speed of 3.6 meters per second (8.1 miles per hour) from northwest (310°).
 
The temperature was 13 °C (55 °F), with a dew-point at 9 °C (48 °F).
The atmospheric pressure was 1025 hPa (30.28 inHg).
The relative humidity was 76.7%.
 
There were a few clouds at a height of 1219 meters (4000 feet) and scattered clouds at a height of 8230 meters (27000 feet).
 
The overall visibility was 48.3 kilometers (30.0 miles).
 

 
 
 
 

Country :   A   B   C   D   E   F   G   H   I   J   K   L   M   N   O   P   Q   R   S   T   U   V   W   Y   Z

 

Site Info  |  Disclaimer  |  Credits  |  Privacy
Contact us  |  Add to favorites
© 2013-2020 METARs - All rights reserved